createdAt,value
2019-04-20T00:00:52.979Z,19.90
2019-04-20T00:03:18.286Z,19.90
2019-04-20T00:05:45.743Z,19.90
2019-04-20T00:08:19.650Z,19.90
2019-04-20T00:10:52.466Z,19.90
2019-04-20T00:13:24.574Z,19.90
2019-04-20T00:15:40.987Z,20.00
2019-04-20T00:18:11.449Z,19.90
2019-04-20T00:20:40.787Z,19.90
2019-04-20T00:23:24.966Z,19.90
2019-04-20T00:26:13.193Z,19.90
2019-04-20T00:28:51.098Z,19.90
2019-04-20T00:31:19.268Z,19.90
2019-04-20T00:33:43.558Z,19.90
2019-04-20T00:36:01.068Z,19.90
2019-04-20T00:38:37.644Z,19.90
2019-04-20T00:41:02.723Z,19.90
2019-04-20T00:43:32.312Z,19.90
2019-04-20T00:46:01.162Z,19.90
2019-04-20T00:48:37.543Z,19.90
2019-04-20T00:51:20.052Z,19.90
2019-04-20T00:53:31.379Z,19.90
2019-04-20T00:55:53.095Z,20.00
2019-04-20T00:58:28.903Z,19.90
2019-04-20T01:01:13.036Z,19.90
2019-04-20T01:03:33.830Z,19.90
2019-04-20T01:06:24.824Z,19.90
2019-04-20T01:08:33.964Z,19.90
2019-04-20T01:11:02.655Z,19.90
2019-04-20T01:13:31.772Z,19.90
2019-04-20T01:16:07.715Z,19.90
2019-04-20T01:18:28.597Z,19.90
2019-04-20T01:20:59.115Z,19.90
2019-04-20T01:23:34.621Z,19.90
2019-04-20T01:26:01.239Z,19.90
2019-04-20T01:28:40.541Z,19.90
2019-04-20T01:31:06.733Z,19.90
2019-04-20T01:33:31.766Z,19.90
2019-04-20T01:36:02.815Z,19.90
2019-04-20T01:38:34.360Z,19.90
2019-04-20T01:40:50.575Z,19.90
2019-04-20T01:43:18.485Z,19.90
2019-04-20T01:45:47.620Z,19.90
2019-04-20T01:48:22.884Z,19.90
2019-04-20T01:50:54.835Z,19.90
2019-04-20T01:53:29.284Z,19.90
2019-04-20T01:56:01.617Z,19.90
2019-04-20T01:58:39.655Z,19.90
2019-04-20T02:00:57.268Z,19.90
2019-04-20T02:03:46.664Z,19.80
2019-04-20T02:06:28.233Z,19.80
2019-04-20T02:08:59.430Z,19.80
2019-04-20T02:11:30.489Z,19.80
2019-04-20T02:13:57.258Z,19.80
2019-04-20T02:16:28.808Z,19.80
2019-04-20T02:19:10.998Z,19.80
2019-04-20T02:21:40.921Z,19.80
2019-04-20T02:23:56.367Z,19.80
2019-04-20T02:26:19.999Z,19.90
2019-04-20T02:29:14.540Z,19.80
2019-04-20T02:32:06.611Z,19.80
2019-04-20T02:34:33.949Z,19.80
2019-04-20T02:39:41.363Z,19.90
2019-04-20T02:42:17.895Z,19.90
2019-04-20T02:44:40.385Z,19.80
2019-04-20T02:47:07.822Z,19.80
2019-04-20T02:52:02.976Z,19.80
2019-04-20T02:54:37.320Z,19.80
2019-04-20T02:57:07.372Z,19.80
2019-04-20T03:02:02.981Z,19.80
2019-04-20T03:03:58.095Z,19.80
2019-04-20T03:06:33.030Z,19.80
2019-04-20T03:09:17.702Z,19.80
2019-04-20T03:11:53.945Z,19.80
2019-04-20T03:14:10.677Z,19.80
2019-04-20T03:16:37.238Z,19.80
2019-04-20T03:19:02.517Z,19.80
2019-04-20T03:21:41.828Z,19.80
2019-04-20T03:24:17.381Z,19.80
2019-04-20T03:26:36.424Z,19.80
2019-04-20T03:29:12.721Z,19.80
2019-04-20T03:37:04.701Z,19.80
2019-04-20T03:39:17.630Z,19.80
2019-04-20T03:41:37.716Z,19.80
2019-04-20T03:44:03.136Z,19.80
2019-04-20T03:46:37.636Z,19.80
2019-04-20T03:49:17.668Z,19.80
2019-04-20T03:51:50.360Z,19.80
2019-04-20T03:54:30.649Z,19.80
2019-04-20T03:57:13.932Z,19.80
2019-04-20T03:59:47.544Z,19.80
2019-04-20T04:05:05.900Z,19.80
2019-04-20T04:07:26.859Z,19.80
2019-04-20T04:10:01.180Z,19.80
2019-04-20T04:12:37.151Z,19.80
2019-04-20T04:15:02.222Z,19.80
2019-04-20T04:17:35.307Z,19.80
2019-04-20T04:20:05.104Z,19.70
2019-04-20T04:22:43.763Z,19.70
2019-04-20T04:25:12.277Z,19.80
2019-04-20T04:27:40.423Z,19.80
2019-04-20T04:30:09.555Z,19.80
2019-04-20T04:33:07.013Z,19.80
2019-04-20T04:35:10.631Z,19.70
2019-04-20T04:37:40.569Z,19.70
2019-04-20T04:40:20.541Z,19.80
2019-04-20T04:42:42.283Z,19.70
2019-04-20T04:45:01.022Z,19.80
2019-04-20T04:47:20.339Z,19.80
2019-04-20T04:49:56.199Z,19.80
2019-04-20T04:52:27.413Z,19.70
2019-04-20T04:54:53.646Z,19.80
2019-04-20T04:57:15.720Z,19.80
2019-04-20T04:59:44.489Z,19.70
2019-04-20T05:02:12.185Z,19.80
2019-04-20T05:05:17.619Z,19.70
2019-04-20T05:07:43.826Z,19.70
2019-04-20T05:10:01.535Z,19.70
2019-04-20T05:12:32.191Z,19.70
2019-04-20T05:15:07.874Z,19.70
2019-04-20T05:17:53.221Z,19.70
2019-04-20T05:20:18.085Z,19.70
2019-04-20T05:22:51.346Z,19.70
2019-04-20T05:25:50.866Z,19.70
2019-04-20T05:28:11.971Z,19.70
2019-04-20T05:30:24.559Z,19.70
2019-04-20T05:32:59.446Z,19.70
2019-04-20T05:35:44.197Z,19.70
2019-04-20T05:38:12.671Z,19.70
2019-04-20T05:40:44.299Z,19.70
2019-04-20T05:43:12.948Z,19.70
2019-04-20T05:45:34.029Z,19.80
2019-04-20T05:48:09.001Z,19.80
2019-04-20T05:50:39.639Z,19.80
2019-04-20T05:53:09.942Z,19.80
2019-04-20T05:55:41.627Z,19.80
2019-04-20T05:58:13.956Z,19.80
2019-04-20T06:00:40.587Z,19.80
2019-04-20T06:03:03.505Z,19.80
2019-04-20T06:05:36.705Z,19.80
2019-04-20T06:08:05.444Z,19.80
2019-04-20T06:10:39.676Z,19.80
2019-04-20T06:13:06.343Z,19.80
2019-04-20T06:15:38.465Z,19.80
2019-04-20T06:18:06.947Z,19.80
2019-04-20T06:20:43.858Z,19.80
2019-04-20T06:23:41.340Z,19.80
2019-04-20T06:26:33.183Z,19.80
2019-04-20T06:28:37.748Z,19.80
2019-04-20T06:31:14.831Z,19.80
2019-04-20T06:34:19.326Z,19.80
2019-04-20T06:36:32.259Z,19.80
2019-04-20T06:39:01.965Z,19.80
2019-04-20T06:41:45.591Z,19.80
2019-04-20T06:44:03.827Z,19.80
2019-04-20T06:46:29.245Z,19.80
2019-04-20T06:48:58.997Z,19.90
2019-04-20T06:51:38.842Z,19.80
2019-04-20T06:54:07.020Z,19.80
2019-04-20T06:56:55.744Z,19.80
2019-04-20T06:59:26.427Z,19.80
2019-04-20T07:01:58.309Z,19.80
2019-04-20T07:09:22.088Z,19.80
2019-04-20T07:11:46.443Z,19.80
2019-04-20T07:14:02.930Z,19.80
2019-04-20T07:16:53.145Z,19.80
2019-04-20T07:19:26.917Z,19.80
2019-04-20T07:22:10.607Z,19.80
2019-04-20T07:24:30.609Z,19.80
2019-04-20T07:26:59.064Z,19.80
2019-04-20T07:29:27.493Z,19.80
2019-04-20T07:31:49.930Z,19.80
2019-04-20T07:34:23.042Z,19.80
2019-04-20T07:37:04.810Z,19.80
2019-04-20T07:39:22.947Z,19.80
2019-04-20T07:41:58.662Z,19.80
2019-04-20T07:44:29.869Z,19.80
2019-04-20T07:47:11.724Z,19.80
2019-04-20T07:49:21.850Z,19.80
2019-04-20T07:51:32.324Z,19.80
2019-04-20T07:54:23.281Z,19.80
2019-04-20T07:56:47.858Z,19.90
2019-04-20T07:59:07.201Z,19.90
2019-04-20T08:02:04.330Z,19.90
2019-04-20T08:04:32.463Z,19.90
2019-04-20T08:06:51.856Z,19.90
2019-04-20T08:09:26.175Z,19.90
2019-04-20T08:12:14.915Z,19.90
2019-04-20T08:14:39.230Z,19.90
2019-04-20T08:17:13.993Z,19.90
2019-04-20T08:19:28.671Z,19.90
2019-04-20T08:21:59.140Z,19.90
2019-04-20T08:24:31.463Z,19.90
2019-04-20T08:26:51.661Z,19.90
2019-04-20T08:29:21.760Z,19.90
2019-04-20T08:32:14.071Z,19.90
2019-04-20T08:34:44.370Z,19.90
2019-04-20T08:37:15.363Z,19.90
2019-04-20T08:39:53.889Z,19.90
2019-04-20T08:42:11.708Z,19.90
2019-04-20T08:47:18.238Z,19.90
2019-04-20T08:50:09.428Z,19.90
2019-04-20T08:52:49.545Z,19.90
2019-04-20T08:55:01.282Z,19.90
2019-04-20T08:57:09.172Z,19.90
2019-04-20T08:59:36.710Z,19.90
2019-04-20T09:02:09.026Z,19.90
2019-04-20T09:04:43.560Z,19.90
2019-04-20T09:07:11.564Z,19.90
2019-04-20T09:09:54.767Z,19.90
2019-04-20T09:12:17.932Z,19.90
2019-04-20T09:14:34.682Z,19.90
2019-04-20T09:17:06.861Z,19.90
2019-04-20T09:19:41.686Z,19.90
2019-04-20T09:22:28.037Z,19.90
2019-04-20T09:25:26.550Z,19.90
2019-04-20T09:27:28.958Z,19.90
2019-04-20T09:30:03.925Z,19.90
2019-04-20T09:32:39.700Z,19.90
2019-04-20T09:35:17.372Z,19.90
2019-04-20T09:37:47.348Z,19.90
2019-04-20T09:40:29.214Z,19.90
2019-04-20T09:42:37.618Z,19.90
2019-04-20T09:45:07.574Z,19.90
2019-04-20T09:47:41.962Z,19.90
2019-04-20T09:50:24.732Z,19.90
2019-04-20T09:52:51.729Z,19.90
2019-04-20T09:55:18.165Z,20.00
2019-04-20T09:57:54.081Z,19.90
2019-04-20T10:00:23.626Z,19.90
2019-04-20T10:02:39.138Z,19.90
2019-04-20T10:05:05.692Z,19.90
2019-04-20T10:07:35.601Z,20.00
2019-04-20T10:10:15.582Z,20.00
2019-04-20T10:12:31.699Z,20.00
2019-04-20T10:15:04.197Z,20.00
2019-04-20T10:17:31.357Z,19.90
2019-04-20T10:19:57.817Z,19.90
2019-04-20T10:22:26.666Z,20.00
2019-04-20T10:24:55.542Z,20.00
2019-04-20T10:27:24.299Z,20.00
2019-04-20T10:29:51.875Z,20.00
2019-04-20T10:32:19.736Z,20.00
2019-04-20T10:34:48.555Z,20.00
2019-04-20T10:37:17.726Z,20.00
2019-04-20T10:39:45.165Z,20.00
2019-04-20T10:42:12.649Z,20.00
2019-04-20T10:44:40.981Z,20.00
2019-04-20T10:47:09.147Z,20.00
2019-04-20T10:49:37.367Z,20.00
2019-04-20T10:52:07.477Z,20.00
2019-04-20T10:54:36.394Z,20.00
2019-04-20T10:57:04.004Z,20.00
2019-04-20T10:59:31.837Z,20.00
2019-04-20T11:01:59.419Z,20.00
2019-04-20T11:04:26.890Z,20.00
2019-04-20T11:06:54.548Z,20.00
2019-04-20T11:09:22.674Z,20.00
2019-04-20T11:11:50.360Z,20.00
2019-04-20T11:14:24.838Z,20.00
2019-04-20T11:16:47.053Z,20.00
2019-04-20T11:19:15.611Z,20.00
2019-04-20T11:21:44.111Z,20.00
2019-04-20T11:24:12.246Z,20.00
2019-04-20T11:26:41.677Z,20.00
2019-04-20T11:29:10.445Z,20.00
2019-04-20T11:31:43.192Z,20.00
2019-04-20T11:34:08.023Z,20.00
2019-04-20T11:36:35.591Z,20.00
2019-04-20T11:39:07.032Z,20.00
2019-04-20T11:41:37.299Z,20.00
2019-04-20T11:44:03.833Z,20.00
2019-04-20T11:46:32.414Z,20.10
2019-04-20T11:49:01.333Z,20.10
2019-04-20T11:51:29.784Z,20.10
2019-04-20T11:53:58.530Z,20.00
2019-04-20T11:56:31.463Z,20.10
2019-04-20T11:58:56.650Z,20.00
2019-04-20T12:01:29.007Z,20.10
2019-04-20T12:04:01.654Z,20.10
2019-04-20T12:06:25.234Z,20.10
2019-04-20T12:08:54.853Z,20.10
2019-04-20T12:11:31.970Z,20.10
2019-04-20T12:13:52.245Z,20.10
2019-04-20T12:16:19.755Z,20.10
2019-04-20T12:18:48.306Z,20.10
2019-04-20T12:21:16.846Z,20.10
2019-04-20T12:23:44.607Z,20.10
2019-04-20T12:26:13.068Z,20.10
2019-04-20T12:28:40.711Z,20.20
2019-04-20T12:31:12.016Z,20.20
2019-04-20T12:33:37.375Z,20.20
2019-04-20T12:36:06.494Z,20.20
2019-04-20T12:38:34.904Z,20.20
2019-04-20T12:41:04.857Z,20.20
2019-04-20T12:43:31.946Z,20.20
2019-04-20T12:46:00.027Z,20.30
2019-04-20T12:48:27.645Z,20.30
2019-04-20T12:50:55.476Z,20.30
2019-04-20T12:53:24.315Z,20.40
2019-04-20T12:55:52.693Z,20.50
2019-04-20T12:58:20.909Z,20.50
2019-04-20T13:00:49.868Z,20.50
2019-04-20T13:03:17.640Z,20.70
2019-04-20T13:05:45.848Z,21.10
2019-04-20T13:08:20.694Z,21.30
2019-04-20T13:10:44.541Z,21.40
2019-04-20T13:13:22.761Z,21.50
2019-04-20T13:15:52.193Z,21.50
2019-04-20T13:18:21.351Z,21.60
2019-04-20T13:20:50.067Z,21.50
2019-04-20T13:23:20.190Z,21.60
2019-04-20T13:25:47.037Z,21.50
2019-04-20T13:28:14.787Z,21.50
2019-04-20T13:30:43.632Z,21.50
2019-04-20T13:33:12.077Z,21.50
2019-04-20T13:35:40.517Z,21.50
2019-04-20T13:38:09.999Z,21.50
2019-04-20T13:40:37.758Z,21.50
2019-04-20T13:43:05.829Z,21.40
2019-04-20T13:45:33.427Z,21.40
2019-04-20T13:48:01.196Z,21.40
2019-04-20T13:50:29.627Z,21.40
2019-04-20T13:52:58.364Z,21.40
2019-04-20T13:55:27.306Z,21.40
2019-04-20T13:57:57.973Z,21.30
2019-04-20T14:00:38.718Z,21.30
2019-04-20T14:03:08.969Z,21.30
2019-04-20T14:05:36.503Z,21.30
2019-04-20T14:08:05.239Z,21.30
2019-04-20T14:10:33.413Z,21.30
2019-04-20T14:13:08.204Z,21.20
2019-04-20T14:15:31.192Z,21.20
2019-04-20T14:17:59.374Z,21.20
2019-04-20T14:20:27.218Z,21.20
2019-04-20T14:22:54.795Z,21.20
2019-04-20T14:25:22.855Z,21.20
2019-04-20T14:27:50.868Z,21.10
2019-04-20T14:30:19.288Z,21.10
2019-04-20T14:32:48.048Z,21.10
2019-04-20T14:35:16.735Z,21.10
2019-04-20T14:37:45.802Z,21.00
2019-04-20T14:40:14.584Z,21.00
2019-04-20T14:42:47.713Z,21.00
2019-04-20T14:45:11.409Z,20.90
2019-04-20T14:47:39.573Z,20.90
2019-04-20T14:50:07.635Z,20.90
2019-04-20T14:52:35.503Z,20.90
2019-04-20T14:55:03.913Z,21.00
2019-04-20T14:57:31.775Z,21.20
2019-04-20T15:00:17.380Z,21.30
2019-04-20T15:02:45.844Z,21.40
2019-04-20T15:05:13.333Z,21.50
2019-04-20T15:07:40.800Z,21.50
2019-04-20T15:10:08.980Z,21.50
2019-04-20T15:12:48.329Z,21.50
2019-04-20T15:15:06.560Z,21.50
2019-04-20T15:17:35.675Z,21.50
2019-04-20T15:20:11.857Z,21.50
2019-04-20T15:22:41.347Z,21.50
2019-04-20T15:25:09.568Z,21.50
2019-04-20T15:27:37.430Z,21.50
2019-04-20T15:30:06.693Z,21.40
2019-04-20T15:32:34.173Z,21.40
2019-04-20T15:35:03.080Z,21.40
2019-04-20T15:37:30.990Z,21.40
2019-04-20T15:39:59.052Z,21.30
2019-04-20T15:42:27.610Z,21.30
2019-04-20T15:44:55.594Z,21.30
2019-04-20T15:47:23.161Z,21.30
2019-04-20T15:49:51.688Z,21.20
2019-04-20T15:52:24.516Z,21.20
2019-04-20T15:54:49.703Z,21.20
2019-04-20T15:57:21.745Z,21.20
2019-04-20T15:59:46.512Z,21.20
2019-04-20T16:02:27.573Z,21.20
2019-04-20T16:04:56.672Z,21.10
2019-04-20T16:07:25.528Z,21.10
2019-04-20T16:09:53.050Z,21.10
2019-04-20T16:12:20.811Z,21.10
2019-04-20T16:14:49.383Z,21.00
2019-04-20T16:17:17.461Z,21.00
2019-04-20T16:19:54.604Z,21.00
2019-04-20T16:22:15.473Z,21.00
2019-04-20T16:24:51.695Z,21.00
2019-04-20T16:27:27.700Z,21.00
2019-04-20T16:29:55.797Z,20.90
2019-04-20T16:32:24.491Z,20.90
2019-04-20T16:34:52.697Z,20.90
2019-04-20T16:37:20.302Z,20.90
2019-04-20T16:39:48.334Z,20.90
2019-04-20T16:42:16.281Z,20.90
2019-04-20T16:44:45.242Z,20.80
2019-04-20T16:47:12.772Z,20.80
2019-04-20T16:49:41.523Z,20.80
2019-04-20T16:52:08.988Z,20.80
2019-04-20T16:54:37.563Z,20.80
2019-04-20T16:57:08.089Z,20.80
2019-04-20T16:59:40.179Z,20.80
2019-04-20T17:02:04.586Z,20.80
2019-04-20T17:04:33.786Z,20.70
2019-04-20T17:07:16.542Z,20.80
2019-04-20T17:09:45.994Z,20.80
2019-04-20T17:12:15.450Z,20.70
2019-04-20T17:14:43.364Z,20.70
2019-04-20T17:17:11.566Z,20.70
2019-04-20T17:19:39.893Z,20.70
2019-04-20T17:22:07.601Z,20.70
2019-04-20T17:24:35.649Z,20.70
2019-04-20T17:27:14.972Z,20.70
2019-04-20T17:29:48.638Z,20.70
2019-04-20T17:32:19.175Z,20.70
2019-04-20T17:35:00.503Z,20.70
2019-04-20T17:37:16.004Z,20.60
2019-04-20T17:40:09.283Z,20.60
2019-04-20T17:42:32.478Z,20.60
2019-04-20T17:44:55.524Z,20.60
2019-04-20T17:47:31.310Z,20.60
2019-04-20T17:49:59.680Z,20.60
2019-04-20T17:52:36.482Z,20.60
2019-04-20T17:54:51.527Z,20.60
2019-04-20T17:57:19.503Z,20.60
2019-04-20T17:59:53.210Z,20.60
2019-04-20T18:02:47.394Z,20.60
2019-04-20T18:05:34.276Z,20.70
2019-04-20T18:07:45.346Z,20.60
2019-04-20T18:10:17.414Z,20.60
2019-04-20T18:12:35.168Z,20.60
2019-04-20T18:15:12.135Z,20.60
2019-04-20T18:17:56.224Z,20.60
2019-04-20T18:20:15.164Z,20.60
2019-04-20T18:22:46.769Z,20.60
2019-04-20T18:25:32.499Z,20.60
2019-04-20T18:27:59.929Z,20.60
2019-04-20T18:30:27.454Z,20.60
2019-04-20T18:32:43.074Z,20.50
2019-04-20T18:35:18.351Z,20.50
2019-04-20T18:37:52.500Z,20.60
2019-04-20T18:40:27.978Z,20.50
2019-04-20T18:42:49.257Z,20.50
2019-04-20T18:45:30.874Z,20.50
2019-04-20T18:48:04.415Z,20.60
2019-04-20T18:50:22.477Z,20.50
2019-04-20T18:52:42.144Z,20.50
2019-04-20T18:55:17.320Z,20.50
2019-04-20T18:57:39.777Z,20.50
2019-04-20T19:00:18.088Z,20.50
2019-04-20T19:02:40.924Z,20.50
2019-04-20T19:05:08.643Z,20.50
2019-04-20T19:07:42.533Z,20.50
2019-04-20T19:10:14.470Z,20.50
2019-04-20T19:12:47.256Z,20.50
2019-04-20T19:15:30.642Z,20.50
2019-04-20T19:17:59.117Z,20.50
2019-04-20T19:20:25.092Z,20.50
2019-04-20T19:22:52.263Z,20.50
2019-04-20T19:25:27.392Z,20.50
2019-04-20T19:27:54.137Z,20.50
2019-04-20T19:30:24.604Z,20.50
2019-04-20T19:33:04.803Z,20.50
2019-04-20T19:35:29.449Z,20.50
2019-04-20T19:37:56.244Z,20.50
2019-04-20T19:40:29.033Z,20.50
2019-04-20T19:42:58.884Z,20.50
2019-04-20T19:45:36.132Z,20.50
2019-04-20T19:48:01.935Z,20.50
2019-04-20T19:50:39.149Z,20.50
2019-04-20T19:53:12.547Z,20.50
2019-04-20T19:55:26.053Z,20.50
2019-04-20T19:57:56.627Z,20.50
2019-04-20T20:00:10.157Z,20.50
2019-04-20T20:02:39.470Z,20.50
2019-04-20T20:05:09.236Z,20.50
2019-04-20T20:07:41.852Z,20.50
2019-04-20T20:10:08.671Z,20.50
2019-04-20T20:12:35.722Z,20.50
2019-04-20T20:15:06.420Z,20.50
2019-04-20T20:17:54.251Z,20.50
2019-04-20T20:20:28.858Z,20.50
2019-04-20T20:22:38.917Z,20.50
2019-04-20T20:25:01.066Z,20.50
2019-04-20T20:27:37.673Z,20.50
2019-04-20T20:30:08.225Z,20.50
2019-04-20T20:32:49.197Z,20.50
2019-04-20T20:35:06.972Z,20.50
2019-04-20T20:37:34.680Z,20.40
2019-04-20T20:40:07.664Z,20.50
2019-04-20T20:42:33.021Z,20.50
2019-04-20T20:45:02.904Z,20.50
2019-04-20T20:47:41.124Z,20.50
2019-04-20T20:50:15.433Z,20.40
2019-04-20T20:52:36.906Z,20.50
2019-04-20T20:54:59.344Z,20.40
2019-04-20T20:57:24.286Z,20.40
2019-04-20T20:59:55.530Z,20.50
2019-04-20T21:02:24.198Z,20.40
2019-04-20T21:04:47.858Z,20.50
2019-04-20T21:07:16.408Z,20.50
2019-04-20T21:09:43.945Z,20.50
2019-04-20T21:12:16.207Z,20.40
2019-04-20T21:14:42.395Z,20.40
2019-04-20T21:17:17.584Z,20.50
2019-04-20T21:19:59.349Z,20.40
2019-04-20T21:22:16.954Z,20.40
2019-04-20T21:24:45.404Z,20.50
2019-04-20T21:27:15.291Z,20.40
2019-04-20T21:29:45.367Z,20.40
2019-04-20T21:32:14.268Z,20.50
2019-04-20T21:34:44.473Z,20.40
2019-04-20T21:37:12.733Z,20.40
2019-04-20T21:39:44.764Z,20.40
2019-04-20T21:42:12.490Z,20.40
2019-04-20T21:44:41.360Z,20.40
2019-04-20T21:47:05.370Z,20.40
2019-04-20T21:49:45.755Z,20.40
2019-04-20T21:52:06.714Z,20.40
2019-04-20T21:54:31.957Z,20.40
2019-04-20T21:57:03.949Z,20.40
2019-04-20T21:59:36.250Z,20.50
2019-04-20T22:02:09.880Z,20.40
2019-04-20T22:04:27.254Z,20.40
2019-04-20T22:06:56.110Z,20.50
2019-04-20T22:09:25.068Z,20.40
2019-04-20T22:11:53.905Z,20.40
2019-04-20T22:14:24.956Z,20.40
2019-04-20T22:16:53.801Z,20.40
2019-04-20T22:19:33.169Z,20.40
2019-04-20T22:22:01.037Z,20.40
2019-04-20T22:24:32.875Z,20.40
2019-04-20T22:26:54.866Z,20.40
2019-04-20T22:29:16.693Z,20.40
2019-04-20T22:31:51.802Z,20.40
2019-04-20T22:34:17.351Z,20.40
2019-04-20T22:36:46.524Z,20.40
2019-04-20T22:39:24.492Z,20.40
2019-04-20T22:41:53.721Z,20.40
2019-04-20T22:44:21.423Z,20.40
2019-04-20T22:46:49.992Z,20.40
2019-04-20T22:49:36.155Z,20.40
2019-04-20T22:51:58.251Z,20.30
2019-04-20T22:54:35.252Z,20.30
2019-04-20T22:56:57.168Z,20.30
2019-04-20T22:59:20.358Z,20.30
2019-04-20T23:01:48.548Z,20.30
2019-04-20T23:04:13.150Z,20.30
2019-04-20T23:06:45.824Z,20.30
2019-04-20T23:09:12.626Z,20.30
2019-04-20T23:11:40.370Z,20.30
2019-04-20T23:14:08.725Z,20.30
2019-04-20T23:16:43.292Z,20.40
2019-04-20T23:19:05.559Z,20.30
2019-04-20T23:21:34.097Z,20.30
2019-04-20T23:24:06.304Z,20.30
2019-04-20T23:26:36.550Z,20.30
2019-04-20T23:29:02.494Z,20.30
2019-04-20T23:31:30.794Z,20.30
2019-04-20T23:34:01.418Z,20.30
2019-04-20T23:36:36.548Z,20.30
2019-04-20T23:39:00.916Z,20.30
2019-04-20T23:41:26.060Z,20.30
2019-04-20T23:44:01.903Z,20.30
2019-04-20T23:46:29.637Z,20.30
2019-04-20T23:49:20.949Z,20.30
2019-04-20T23:52:06.659Z,20.30
2019-04-20T23:54:18.550Z,20.30
2019-04-20T23:56:41.653Z,20.30
2019-04-20T23:59:10.550Z,20.30
